sensor_id;sensor_type;location;lat;lon;timestamp;P1;durP1;ratioP1;P2;durP2;ratioP2
11984;SDS011;6052;53.246;10.368;2023-07-31T00:01:32;2.15;;;0.90;;
11984;SDS011;6052;53.246;10.368;2023-07-31T00:04:01;1.58;;;0.70;;
11984;SDS011;6052;53.246;10.368;2023-07-31T00:06:31;2.30;;;1.00;;
11984;SDS011;6052;53.246;10.368;2023-07-31T00:09:03;1.98;;;0.95;;
11984;SDS011;6052;53.246;10.368;2023-07-31T00:11:32;3.17;;;1.10;;
11984;SDS011;6052;53.246;10.368;2023-07-31T00:14:02;1.98;;;0.75;;
11984;SDS011;6052;53.246;10.368;2023-07-31T00:16:31;1.38;;;0.93;;
11984;SDS011;6052;53.246;10.368;2023-07-31T00:19:01;1.92;;;0.93;;
11984;SDS011;6052;53.246;10.368;2023-07-31T00:21:30;2.55;;;1.02;;
11984;SDS011;6052;53.246;10.368;2023-07-31T00:23:59;2.75;;;1.10;;
11984;SDS011;6052;53.246;10.368;2023-07-31T00:26:32;0.85;;;0.80;;
11984;SDS011;6052;53.246;10.368;2023-07-31T00:29:01;1.27;;;0.80;;
11984;SDS011;6052;53.246;10.368;2023-07-31T00:31:30;2.08;;;0.82;;
11984;SDS011;6052;53.246;10.368;2023-07-31T00:34:00;4.03;;;0.90;;
11984;SDS011;6052;53.246;10.368;2023-07-31T00:36:29;1.95;;;1.13;;
11984;SDS011;6052;53.246;10.368;2023-07-31T00:38:59;0.95;;;0.85;;
11984;SDS011;6052;53.246;10.368;2023-07-31T00:41:31;2.33;;;0.93;;
11984;SDS011;6052;53.246;10.368;2023-07-31T00:44:00;1.00;;;0.90;;
11984;SDS011;6052;53.246;10.368;2023-07-31T00:46:30;2.75;;;1.15;;
11984;SDS011;6052;53.246;10.368;2023-07-31T00:48:59;3.53;;;1.30;;
11984;SDS011;6052;53.246;10.368;2023-07-31T00:51:29;1.13;;;0.90;;
11984;SDS011;6052;53.246;10.368;2023-07-31T00:53:56;2.58;;;1.10;;
11984;SDS011;6052;53.246;10.368;2023-07-31T00:56:26;1.52;;;1.10;;
11984;SDS011;6052;53.246;10.368;2023-07-31T00:58:59;0.98;;;0.85;;
11984;SDS011;6052;53.246;10.368;2023-07-31T01:01:29;3.33;;;0.88;;
11984;SDS011;6052;53.246;10.368;2023-07-31T01:03:58;2.58;;;1.17;;
11984;SDS011;6052;53.246;10.368;2023-07-31T01:06:30;2.67;;;1.38;;
11984;SDS011;6052;53.246;10.368;2023-07-31T01:09:07;4.10;;;1.17;;
11984;SDS011;6052;53.246;10.368;2023-07-31T01:11:46;2.85;;;1.23;;
11984;SDS011;6052;53.246;10.368;2023-07-31T01:14:23;2.78;;;1.20;;
11984;SDS011;6052;53.246;10.368;2023-07-31T01:16:53;1.58;;;1.10;;
11984;SDS011;6052;53.246;10.368;2023-07-31T01:19:23;2.85;;;1.10;;
11984;SDS011;6052;53.246;10.368;2023-07-31T01:21:59;4.93;;;1.50;;
11984;SDS011;6052;53.246;10.368;2023-07-31T01:24:41;5.15;;;1.88;;
11984;SDS011;6052;53.246;10.368;2023-07-31T01:27:28;4.20;;;1.20;;
11984;SDS011;6052;53.246;10.368;2023-07-31T01:30:00;2.60;;;0.98;;
11984;SDS011;6052;53.246;10.368;2023-07-31T01:32:38;3.55;;;1.05;;
11984;SDS011;6052;53.246;10.368;2023-07-31T01:35:10;2.72;;;1.25;;
11984;SDS011;6052;53.246;10.368;2023-07-31T01:37:39;1.63;;;1.20;;
11984;SDS011;6052;53.246;10.368;2023-07-31T01:40:09;4.28;;;1.10;;
11984;SDS011;6052;53.246;10.368;2023-07-31T01:42:41;2.58;;;1.15;;
11984;SDS011;6052;53.246;10.368;2023-07-31T01:45:11;1.45;;;1.15;;
11984;SDS011;6052;53.246;10.368;2023-07-31T01:47:41;3.90;;;1.45;;
11984;SDS011;6052;53.246;10.368;2023-07-31T01:50:10;2.15;;;1.20;;
11984;SDS011;6052;53.246;10.368;2023-07-31T01:52:40;1.80;;;1.20;;
11984;SDS011;6052;53.246;10.368;2023-07-31T01:55:09;3.25;;;1.27;;
11984;SDS011;6052;53.246;10.368;2023-07-31T01:57:41;1.90;;;1.27;;
11984;SDS011;6052;53.246;10.368;2023-07-31T02:00:11;1.90;;;1.08;;
11984;SDS011;6052;53.246;10.368;2023-07-31T02:02:41;1.77;;;1.20;;
11984;SDS011;6052;53.246;10.368;2023-07-31T02:05:10;2.35;;;1.35;;
11984;SDS011;6052;53.246;10.368;2023-07-31T02:07:39;1.10;;;0.98;;
11984;SDS011;6052;53.246;10.368;2023-07-31T02:10:09;1.83;;;1.10;;
11984;SDS011;6052;53.246;10.368;2023-07-31T02:12:38;2.13;;;1.17;;
11984;SDS011;6052;53.246;10.368;2023-07-31T02:15:10;2.13;;;1.10;;
11984;SDS011;6052;53.246;10.368;2023-07-31T02:17:40;2.90;;;1.10;;
11984;SDS011;6052;53.246;10.368;2023-07-31T02:20:09;1.08;;;1.00;;
11984;SDS011;6052;53.246;10.368;2023-07-31T02:22:39;4.35;;;1.55;;
11984;SDS011;6052;53.246;10.368;2023-07-31T02:25:09;1.55;;;1.27;;
11984;SDS011;6052;53.246;10.368;2023-07-31T02:27:38;2.05;;;1.10;;
11984;SDS011;6052;53.246;10.368;2023-07-31T02:30:11;2.17;;;1.10;;
11984;SDS011;6052;53.246;10.368;2023-07-31T02:32:40;1.40;;;1.10;;
11984;SDS011;6052;53.246;10.368;2023-07-31T02:35:10;2.90;;;1.40;;
11984;SDS011;6052;53.246;10.368;2023-07-31T02:37:42;3.58;;;1.77;;
11984;SDS011;6052;53.246;10.368;2023-07-31T02:40:11;2.53;;;1.45;;
11984;SDS011;6052;53.246;10.368;2023-07-31T02:42:41;1.80;;;1.30;;
11984;SDS011;6052;53.246;10.368;2023-07-31T02:45:13;2.10;;;1.30;;
11984;SDS011;6052;53.246;10.368;2023-07-31T02:47:43;3.45;;;1.45;;
11984;SDS011;6052;53.246;10.368;2023-07-31T02:50:12;1.92;;;1.50;;
11984;SDS011;6052;53.246;10.368;2023-07-31T02:52:42;1.83;;;1.50;;
11984;SDS011;6052;53.246;10.368;2023-07-31T02:55:11;2.58;;;1.70;;
11984;SDS011;6052;53.246;10.368;2023-07-31T02:57:40;2.65;;;1.75;;
11984;SDS011;6052;53.246;10.368;2023-07-31T03:00:10;3.17;;;1.92;;
11984;SDS011;6052;53.246;10.368;2023-07-31T03:02:42;2.70;;;1.70;;
11984;SDS011;6052;53.246;10.368;2023-07-31T03:05:12;2.47;;;1.98;;
11984;SDS011;6052;53.246;10.368;2023-07-31T03:07:41;3.55;;;2.33;;
11984;SDS011;6052;53.246;10.368;2023-07-31T03:10:10;3.72;;;1.90;;
11984;SDS011;6052;53.246;10.368;2023-07-31T03:12:40;2.65;;;1.60;;
11984;SDS011;6052;53.246;10.368;2023-07-31T03:15:10;2.65;;;2.00;;
11984;SDS011;6052;53.246;10.368;2023-07-31T03:17:39;2.45;;;1.63;;
11984;SDS011;6052;53.246;10.368;2023-07-31T03:20:11;3.20;;;2.10;;
11984;SDS011;6052;53.246;10.368;2023-07-31T03:22:45;2.85;;;1.98;;
11984;SDS011;6052;53.246;10.368;2023-07-31T03:25:14;4.30;;;2.00;;
11984;SDS011;6052;53.246;10.368;2023-07-31T03:27:44;5.60;;;1.90;;
11984;SDS011;6052;53.246;10.368;2023-07-31T03:30:13;4.32;;;2.05;;
11984;SDS011;6052;53.246;10.368;2023-07-31T03:32:43;3.25;;;2.00;;
11984;SDS011;6052;53.246;10.368;2023-07-31T03:35:15;2.35;;;1.80;;
11984;SDS011;6052;53.246;10.368;2023-07-31T03:37:44;2.03;;;1.83;;
11984;SDS011;6052;53.246;10.368;2023-07-31T03:40:13;2.85;;;1.75;;
11984;SDS011;6052;53.246;10.368;2023-07-31T03:42:43;4.75;;;2.10;;
11984;SDS011;6052;53.246;10.368;2023-07-31T03:45:12;2.92;;;1.80;;
11984;SDS011;6052;53.246;10.368;2023-07-31T03:47:41;2.25;;;1.70;;
11984;SDS011;6052;53.246;10.368;2023-07-31T03:50:11;2.13;;;1.80;;
11984;SDS011;6052;53.246;10.368;2023-07-31T03:52:43;4.57;;;1.98;;
11984;SDS011;6052;53.246;10.368;2023-07-31T03:55:12;2.28;;;1.77;;
11984;SDS011;6052;53.246;10.368;2023-07-31T03:57:42;2.72;;;2.13;;
11984;SDS011;6052;53.246;10.368;2023-07-31T04:00:12;1.80;;;1.60;;
11984;SDS011;6052;53.246;10.368;2023-07-31T04:02:41;1.85;;;1.75;;
11984;SDS011;6052;53.246;10.368;2023-07-31T04:05:11;3.83;;;1.92;;
11984;SDS011;6052;53.246;10.368;2023-07-31T04:07:43;2.05;;;1.70;;
11984;SDS011;6052;53.246;10.368;2023-07-31T04:10:12;2.30;;;1.60;;
11984;SDS011;6052;53.246;10.368;2023-07-31T04:12:41;6.15;;;1.83;;
11984;SDS011;6052;53.246;10.368;2023-07-31T04:15:11;2.05;;;1.75;;
11984;SDS011;6052;53.246;10.368;2023-07-31T04:17:41;2.47;;;1.70;;
11984;SDS011;6052;53.246;10.368;2023-07-31T04:20:11;2.22;;;1.80;;
11984;SDS011;6052;53.246;10.368;2023-07-31T04:22:43;2.40;;;1.85;;
11984;SDS011;6052;53.246;10.368;2023-07-31T04:25:12;2.80;;;1.70;;
11984;SDS011;6052;53.246;10.368;2023-07-31T04:27:42;2.80;;;2.10;;
11984;SDS011;6052;53.246;10.368;2023-07-31T04:30:11;2.58;;;1.80;;
11984;SDS011;6052;53.246;10.368;2023-07-31T04:32:41;3.10;;;2.00;;
11984;SDS011;6052;53.246;10.368;2023-07-31T04:35:10;2.00;;;1.70;;
11984;SDS011;6052;53.246;10.368;2023-07-31T04:37:39;2.33;;;1.80;;
11984;SDS011;6052;53.246;10.368;2023-07-31T04:40:12;2.45;;;1.60;;
11984;SDS011;6052;53.246;10.368;2023-07-31T04:42:41;2.55;;;1.70;;
11984;SDS011;6052;53.246;10.368;2023-07-31T04:45:11;1.75;;;1.45;;
11984;SDS011;6052;53.246;10.368;2023-07-31T04:47:40;1.75;;;1.60;;
11984;SDS011;6052;53.246;10.368;2023-07-31T04:50:10;3.55;;;1.98;;
11984;SDS011;6052;53.246;10.368;2023-07-31T04:52:39;2.55;;;1.70;;
11984;SDS011;6052;53.246;10.368;2023-07-31T04:55:08;2.65;;;2.00;;
11984;SDS011;6052;53.246;10.368;2023-07-31T04:57:40;2.08;;;1.73;;
11984;SDS011;6052;53.246;10.368;2023-07-31T05:00:10;2.35;;;1.70;;
11984;SDS011;6052;53.246;10.368;2023-07-31T05:02:40;1.60;;;1.50;;
11984;SDS011;6052;53.246;10.368;2023-07-31T05:05:10;1.75;;;1.50;;
11984;SDS011;6052;53.246;10.368;2023-07-31T05:07:39;3.33;;;1.83;;
11984;SDS011;6052;53.246;10.368;2023-07-31T05:10:08;2.25;;;1.67;;
11984;SDS011;6052;53.246;10.368;2023-07-31T05:12:40;2.85;;;1.70;;
11984;SDS011;6052;53.246;10.368;2023-07-31T05:15:10;2.33;;;1.88;;
11984;SDS011;6052;53.246;10.368;2023-07-31T05:17:41;1.73;;;1.63;;
11984;SDS011;6052;53.246;10.368;2023-07-31T05:20:11;1.70;;;1.40;;
11984;SDS011;6052;53.246;10.368;2023-07-31T05:22:41;2.17;;;1.58;;
11984;SDS011;6052;53.246;10.368;2023-07-31T05:25:10;2.47;;;1.60;;
11984;SDS011;6052;53.246;10.368;2023-07-31T05:27:42;1.55;;;1.45;;
11984;SDS011;6052;53.246;10.368;2023-07-31T05:30:11;1.70;;;1.55;;
11984;SDS011;6052;53.246;10.368;2023-07-31T05:32:41;1.40;;;1.30;;
11984;SDS011;6052;53.246;10.368;2023-07-31T05:35:10;1.58;;;1.30;;
11984;SDS011;6052;53.246;10.368;2023-07-31T05:37:40;2.55;;;1.52;;
11984;SDS011;6052;53.246;10.368;2023-07-31T05:40:09;2.13;;;1.58;;
11984;SDS011;6052;53.246;10.368;2023-07-31T05:42:42;1.30;;;1.20;;
11984;SDS011;6052;53.246;10.368;2023-07-31T05:45:11;1.67;;;1.42;;
11984;SDS011;6052;53.246;10.368;2023-07-31T05:47:40;1.95;;;1.40;;
11984;SDS011;6052;53.246;10.368;2023-07-31T05:50:10;1.55;;;1.45;;
11984;SDS011;6052;53.246;10.368;2023-07-31T05:52:40;4.30;;;1.40;;
11984;SDS011;6052;53.246;10.368;2023-07-31T05:55:10;1.70;;;1.60;;
11984;SDS011;6052;53.246;10.368;2023-07-31T05:57:42;1.98;;;1.23;;
11984;SDS011;6052;53.246;10.368;2023-07-31T06:00:12;1.48;;;1.35;;
11984;SDS011;6052;53.246;10.368;2023-07-31T06:02:42;1.30;;;1.20;;
11984;SDS011;6052;53.246;10.368;2023-07-31T06:05:12;1.40;;;1.30;;
11984;SDS011;6052;53.246;10.368;2023-07-31T06:07:41;1.30;;;1.17;;
11984;SDS011;6052;53.246;10.368;2023-07-31T06:10:10;1.25;;;1.15;;
11984;SDS011;6052;53.246;10.368;2023-07-31T06:12:42;1.60;;;1.20;;
11984;SDS011;6052;53.246;10.368;2023-07-31T06:15:12;2.42;;;1.13;;
11984;SDS011;6052;53.246;10.368;2023-07-31T06:17:42;1.83;;;1.33;;
11984;SDS011;6052;53.246;10.368;2023-07-31T06:20:11;0.98;;;0.98;;
11984;SDS011;6052;53.246;10.368;2023-07-31T06:22:41;1.15;;;1.05;;
11984;SDS011;6052;53.246;10.368;2023-07-31T06:25:11;1.20;;;1.10;;
11984;SDS011;6052;53.246;10.368;2023-07-31T06:27:43;1.50;;;1.20;;
11984;SDS011;6052;53.246;10.368;2023-07-31T06:30:13;1.23;;;1.02;;
11984;SDS011;6052;53.246;10.368;2023-07-31T06:32:42;1.30;;;1.10;;
11984;SDS011;6052;53.246;10.368;2023-07-31T06:35:12;2.33;;;1.00;;
11984;SDS011;6052;53.246;10.368;2023-07-31T06:37:41;1.23;;;1.13;;
11984;SDS011;6052;53.246;10.368;2023-07-31T06:40:11;1.52;;;1.17;;
11984;SDS011;6052;53.246;10.368;2023-07-31T06:42:40;1.17;;;1.00;;
11984;SDS011;6052;53.246;10.368;2023-07-31T06:45:12;1.20;;;1.10;;
11984;SDS011;6052;53.246;10.368;2023-07-31T06:47:42;0.93;;;0.82;;
11984;SDS011;6052;53.246;10.368;2023-07-31T06:50:11;1.23;;;1.10;;
11984;SDS011;6052;53.246;10.368;2023-07-31T06:52:41;0.93;;;0.90;;
11984;SDS011;6052;53.246;10.368;2023-07-31T06:55:16;1.30;;;0.80;;
11984;SDS011;6052;53.246;10.368;2023-07-31T06:57:48;1.08;;;0.90;;
11984;SDS011;6052;53.246;10.368;2023-07-31T07:00:21;0.90;;;0.80;;
11984;SDS011;6052;53.246;10.368;2023-07-31T07:02:52;0.82;;;0.80;;
11984;SDS011;6052;53.246;10.368;2023-07-31T07:05:21;1.08;;;0.85;;
11984;SDS011;6052;53.246;10.368;2023-07-31T07:07:51;0.70;;;0.70;;
11984;SDS011;6052;53.246;10.368;2023-07-31T07:10:20;1.05;;;0.95;;
11984;SDS011;6052;53.246;10.368;2023-07-31T07:12:50;1.90;;;1.00;;
11984;SDS011;6052;53.246;10.368;2023-07-31T07:15:22;0.70;;;0.70;;
11984;SDS011;6052;53.246;10.368;2023-07-31T07:17:51;1.10;;;1.00;;
11984;SDS011;6052;53.246;10.368;2023-07-31T07:20:21;0.73;;;0.70;;
11984;SDS011;6052;53.246;10.368;2023-07-31T07:22:50;0.80;;;0.80;;
11984;SDS011;6052;53.246;10.368;2023-07-31T07:25:20;0.95;;;0.80;;
11984;SDS011;6052;53.246;10.368;2023-07-31T07:27:49;0.82;;;0.77;;
11984;SDS011;6052;53.246;10.368;2023-07-31T07:30:19;1.50;;;0.90;;
11984;SDS011;6052;53.246;10.368;2023-07-31T07:32:51;0.70;;;0.70;;
11984;SDS011;6052;53.246;10.368;2023-07-31T07:35:20;0.70;;;0.70;;
11984;SDS011;6052;53.246;10.368;2023-07-31T07:37:50;0.80;;;0.80;;
11984;SDS011;6052;53.246;10.368;2023-07-31T07:40:19;0.90;;;0.85;;
11984;SDS011;6052;53.246;10.368;2023-07-31T07:42:49;1.70;;;0.80;;
11984;SDS011;6052;53.246;10.368;2023-07-31T07:45:21;0.65;;;0.60;;
11984;SDS011;6052;53.246;10.368;2023-07-31T07:47:51;0.90;;;0.80;;
11984;SDS011;6052;53.246;10.368;2023-07-31T07:50:20;0.80;;;0.80;;
11984;SDS011;6052;53.246;10.368;2023-07-31T07:52:50;1.13;;;0.63;;
11984;SDS011;6052;53.246;10.368;2023-07-31T07:55:19;0.73;;;0.70;;
11984;SDS011;6052;53.246;10.368;2023-07-31T07:57:48;0.82;;;0.80;;
11984;SDS011;6052;53.246;10.368;2023-07-31T08:00:18;1.33;;;0.60;;
11984;SDS011;6052;53.246;10.368;2023-07-31T08:02:50;1.15;;;0.60;;
11984;SDS011;6052;53.246;10.368;2023-07-31T08:05:19;0.50;;;0.50;;
11984;SDS011;6052;53.246;10.368;2023-07-31T08:07:48;1.55;;;0.70;;
11984;SDS011;6052;53.246;10.368;2023-07-31T08:10:18;0.60;;;0.60;;
11984;SDS011;6052;53.246;10.368;2023-07-31T08:12:47;0.52;;;0.52;;
11984;SDS011;6052;53.246;10.368;2023-07-31T08:15:16;0.70;;;0.70;;
11984;SDS011;6052;53.246;10.368;2023-07-31T08:17:46;0.55;;;0.55;;
11984;SDS011;6052;53.246;10.368;2023-07-31T08:20:18;0.43;;;0.43;;
11984;SDS011;6052;53.246;10.368;2023-07-31T08:22:47;0.60;;;0.60;;
11984;SDS011;6052;53.246;10.368;2023-07-31T08:25:17;0.70;;;0.70;;
11984;SDS011;6052;53.246;10.368;2023-07-31T08:27:46;0.65;;;0.40;;
11984;SDS011;6052;53.246;10.368;2023-07-31T08:30:19;1.35;;;0.50;;
11984;SDS011;6052;53.246;10.368;2023-07-31T08:32:48;0.60;;;0.50;;
11984;SDS011;6052;53.246;10.368;2023-07-31T08:35:20;0.60;;;0.45;;
11984;SDS011;6052;53.246;10.368;2023-07-31T08:37:50;0.55;;;0.55;;
11984;SDS011;6052;53.246;10.368;2023-07-31T08:40:19;0.80;;;0.65;;
11984;SDS011;6052;53.246;10.368;2023-07-31T08:42:49;0.28;;;0.28;;
11984;SDS011;6052;53.246;10.368;2023-07-31T08:45:28;0.30;;;0.30;;
11984;SDS011;6052;53.246;10.368;2023-07-31T08:47:59;0.50;;;0.50;;
11984;SDS011;6052;53.246;10.368;2023-07-31T08:50:31;0.43;;;0.30;;
11984;SDS011;6052;53.246;10.368;2023-07-31T08:53:01;0.20;;;0.20;;
11984;SDS011;6052;53.246;10.368;2023-07-31T08:55:32;0.32;;;0.32;;
11984;SDS011;6052;53.246;10.368;2023-07-31T08:58:01;0.25;;;0.25;;
11984;SDS011;6052;53.246;10.368;2023-07-31T09:00:32;0.30;;;0.30;;
11984;SDS011;6052;53.246;10.368;2023-07-31T09:03:06;0.30;;;0.30;;
11984;SDS011;6052;53.246;10.368;2023-07-31T09:05:41;0.22;;;0.22;;
11984;SDS011;6052;53.246;10.368;2023-07-31T09:08:12;0.17;;;0.17;;
11984;SDS011;6052;53.246;10.368;2023-07-31T09:10:44;2.80;;;2.42;;
11984;SDS011;6052;53.246;10.368;2023-07-31T09:13:16;0.40;;;0.40;;
11984;SDS011;6052;53.246;10.368;2023-07-31T09:15:46;0.45;;;0.45;;
11984;SDS011;6052;53.246;10.368;2023-07-31T09:18:15;0.30;;;0.30;;
11984;SDS011;6052;53.246;10.368;2023-07-31T09:21:02;0.30;;;0.30;;
11984;SDS011;6052;53.246;10.368;2023-07-31T09:23:41;0.30;;;0.30;;
11984;SDS011;6052;53.246;10.368;2023-07-31T09:26:11;0.55;;;0.55;;
11984;SDS011;6052;53.246;10.368;2023-07-31T09:28:58;0.50;;;0.50;;
11984;SDS011;6052;53.246;10.368;2023-07-31T09:31:32;0.60;;;0.60;;
11984;SDS011;6052;53.246;10.368;2023-07-31T09:34:02;0.77;;;0.73;;
11984;SDS011;6052;53.246;10.368;2023-07-31T09:36:34;1.80;;;1.30;;
11984;SDS011;6052;53.246;10.368;2023-07-31T09:39:09;1.63;;;1.27;;
11984;SDS011;6052;53.246;10.368;2023-07-31T09:41:42;4.18;;;1.67;;
11984;SDS011;6052;53.246;10.368;2023-07-31T09:44:13;1.95;;;1.48;;
11984;SDS011;6052;53.246;10.368;2023-07-31T09:46:42;2.75;;;1.73;;
11984;SDS011;6052;53.246;10.368;2023-07-31T09:49:12;3.95;;;1.80;;
11984;SDS011;6052;53.246;10.368;2023-07-31T09:51:45;5.47;;;1.77;;
11984;SDS011;6052;53.246;10.368;2023-07-31T09:54:15;4.05;;;1.95;;
11984;SDS011;6052;53.246;10.368;2023-07-31T09:56:46;5.72;;;2.58;;
11984;SDS011;6052;53.246;10.368;2023-07-31T09:59:17;5.78;;;2.40;;
11984;SDS011;6052;53.246;10.368;2023-07-31T10:01:50;4.00;;;2.47;;
11984;SDS011;6052;53.246;10.368;2023-07-31T10:04:21;5.40;;;2.80;;
11984;SDS011;6052;53.246;10.368;2023-07-31T10:06:59;5.13;;;2.75;;
11984;SDS011;6052;53.246;10.368;2023-07-31T10:09:31;6.80;;;3.05;;
11984;SDS011;6052;53.246;10.368;2023-07-31T10:12:02;4.53;;;2.92;;
11984;SDS011;6052;53.246;10.368;2023-07-31T10:14:38;5.78;;;2.80;;
11984;SDS011;6052;53.246;10.368;2023-07-31T10:17:08;4.90;;;3.15;;
11984;SDS011;6052;53.246;10.368;2023-07-31T10:19:38;5.53;;;3.20;;
11984;SDS011;6052;53.246;10.368;2023-07-31T10:22:11;8.68;;;3.25;;
11984;SDS011;6052;53.246;10.368;2023-07-31T10:24:42;4.00;;;2.70;;
11984;SDS011;6052;53.246;10.368;2023-07-31T10:27:12;4.50;;;2.65;;
11984;SDS011;6052;53.246;10.368;2023-07-31T10:29:41;4.00;;;2.70;;
11984;SDS011;6052;53.246;10.368;2023-07-31T10:32:14;4.82;;;2.92;;
11984;SDS011;6052;53.246;10.368;2023-07-31T10:34:46;9.20;;;3.15;;
11984;SDS011;6052;53.246;10.368;2023-07-31T10:37:23;4.68;;;2.92;;
11984;SDS011;6052;53.246;10.368;2023-07-31T10:39:57;6.75;;;3.30;;
11984;SDS011;6052;53.246;10.368;2023-07-31T10:42:28;7.25;;;3.05;;
11984;SDS011;6052;53.246;10.368;2023-07-31T10:45:00;5.32;;;2.75;;
11984;SDS011;6052;53.246;10.368;2023-07-31T10:47:31;4.82;;;2.90;;
11984;SDS011;6052;53.246;10.368;2023-07-31T10:50:16;7.15;;;3.17;;
11984;SDS011;6052;53.246;10.368;2023-07-31T10:52:51;7.55;;;3.38;;
11984;SDS011;6052;53.246;10.368;2023-07-31T10:55:26;7.97;;;2.90;;
11984;SDS011;6052;53.246;10.368;2023-07-31T10:58:05;5.60;;;2.50;;
11984;SDS011;6052;53.246;10.368;2023-07-31T11:00:36;5.38;;;2.45;;
11984;SDS011;6052;53.246;10.368;2023-07-31T11:03:07;5.20;;;3.10;;
11984;SDS011;6052;53.246;10.368;2023-07-31T11:05:43;3.67;;;2.60;;
11984;SDS011;6052;53.246;10.368;2023-07-31T11:08:18;4.85;;;2.50;;
11984;SDS011;6052;53.246;10.368;2023-07-31T11:10:49;4.82;;;2.58;;
11984;SDS011;6052;53.246;10.368;2023-07-31T11:13:21;4.55;;;2.55;;
11984;SDS011;6052;53.246;10.368;2023-07-31T11:15:50;3.28;;;2.50;;
11984;SDS011;6052;53.246;10.368;2023-07-31T11:18:20;4.22;;;2.30;;
11984;SDS011;6052;53.246;10.368;2023-07-31T11:20:49;4.13;;;2.63;;
11984;SDS011;6052;53.246;10.368;2023-07-31T11:23:22;4.32;;;2.38;;
11984;SDS011;6052;53.246;10.368;2023-07-31T11:25:51;5.97;;;2.17;;
11984;SDS011;6052;53.246;10.368;2023-07-31T11:28:21;4.25;;;2.17;;
11984;SDS011;6052;53.246;10.368;2023-07-31T11:30:51;4.88;;;2.42;;
11984;SDS011;6052;53.246;10.368;2023-07-31T11:33:20;4.97;;;2.20;;
11984;SDS011;6052;53.246;10.368;2023-07-31T11:35:50;3.35;;;1.92;;
11984;SDS011;6052;53.246;10.368;2023-07-31T11:38:25;2.85;;;1.67;;
11984;SDS011;6052;53.246;10.368;2023-07-31T11:40:56;3.33;;;1.73;;
11984;SDS011;6052;53.246;10.368;2023-07-31T11:43:28;3.28;;;1.67;;
11984;SDS011;6052;53.246;10.368;2023-07-31T11:46:00;2.33;;;1.70;;
11984;SDS011;6052;53.246;10.368;2023-07-31T11:48:34;2.50;;;1.40;;
11984;SDS011;6052;53.246;10.368;2023-07-31T11:51:05;1.88;;;1.60;;
11984;SDS011;6052;53.246;10.368;2023-07-31T11:53:40;1.88;;;1.50;;
11984;SDS011;6052;53.246;10.368;2023-07-31T11:56:13;2.75;;;1.48;;
11984;SDS011;6052;53.246;10.368;2023-07-31T11:58:45;2.60;;;1.73;;
11984;SDS011;6052;53.246;10.368;2023-07-31T12:01:16;1.20;;;1.05;;
11984;SDS011;6052;53.246;10.368;2023-07-31T12:03:48;1.73;;;1.17;;
11984;SDS011;6052;53.246;10.368;2023-07-31T12:06:19;1.55;;;1.30;;
11984;SDS011;6052;53.246;10.368;2023-07-31T12:08:52;1.98;;;1.30;;
11984;SDS011;6052;53.246;10.368;2023-07-31T12:11:21;1.50;;;1.20;;
11984;SDS011;6052;53.246;10.368;2023-07-31T12:13:51;2.10;;;1.15;;
11984;SDS011;6052;53.246;10.368;2023-07-31T12:16:20;1.35;;;1.23;;
11984;SDS011;6052;53.246;10.368;2023-07-31T12:18:49;1.15;;;1.05;;
11984;SDS011;6052;53.246;10.368;2023-07-31T12:21:19;2.58;;;1.27;;
11984;SDS011;6052;53.246;10.368;2023-07-31T12:23:51;2.63;;;1.50;;
11984;SDS011;6052;53.246;10.368;2023-07-31T12:26:22;1.48;;;1.00;;
11984;SDS011;6052;53.246;10.368;2023-07-31T12:28:54;2.03;;;1.30;;
11984;SDS011;6052;53.246;10.368;2023-07-31T12:31:23;0.90;;;0.90;;
11984;SDS011;6052;53.246;10.368;2023-07-31T12:33:57;1.23;;;1.00;;
11984;SDS011;6052;53.246;10.368;2023-07-31T12:36:27;1.00;;;0.90;;
11984;SDS011;6052;53.246;10.368;2023-07-31T12:39:01;1.27;;;0.85;;
11984;SDS011;6052;53.246;10.368;2023-07-31T12:41:31;1.90;;;1.15;;
11984;SDS011;6052;53.246;10.368;2023-07-31T12:44:00;2.13;;;1.10;;
11984;SDS011;6052;53.246;10.368;2023-07-31T12:46:29;1.33;;;1.20;;
11984;SDS011;6052;53.246;10.368;2023-07-31T12:48:59;4.20;;;1.10;;
11984;SDS011;6052;53.246;10.368;2023-07-31T12:51:29;1.05;;;0.90;;
11984;SDS011;6052;53.246;10.368;2023-07-31T12:54:00;1.52;;;1.20;;
11984;SDS011;6052;53.246;10.368;2023-07-31T12:56:30;1.10;;;1.00;;
11984;SDS011;6052;53.246;10.368;2023-07-31T12:58:59;1.05;;;0.95;;
11984;SDS011;6052;53.246;10.368;2023-07-31T13:01:29;1.17;;;1.08;;
11984;SDS011;6052;53.246;10.368;2023-07-31T13:03:58;1.10;;;0.93;;
11984;SDS011;6052;53.246;10.368;2023-07-31T13:06:28;0.98;;;0.98;;
11984;SDS011;6052;53.246;10.368;2023-07-31T13:08:57;1.10;;;1.00;;
11984;SDS011;6052;53.246;10.368;2023-07-31T13:11:29;1.15;;;1.05;;
11984;SDS011;6052;53.246;10.368;2023-07-31T13:13:58;1.42;;;1.10;;
11984;SDS011;6052;53.246;10.368;2023-07-31T13:16:28;0.90;;;0.90;;
11984;SDS011;6052;53.246;10.368;2023-07-31T13:18:57;1.95;;;1.00;;
11984;SDS011;6052;53.246;10.368;2023-07-31T13:21:26;0.93;;;0.90;;
11984;SDS011;6052;53.246;10.368;2023-07-31T13:23:56;1.08;;;0.95;;
11984;SDS011;6052;53.246;10.368;2023-07-31T13:26:31;1.17;;;1.08;;
11984;SDS011;6052;53.246;10.368;2023-07-31T13:29:00;2.25;;;1.23;;
11984;SDS011;6052;53.246;10.368;2023-07-31T13:31:30;0.88;;;0.88;;
11984;SDS011;6052;53.246;10.368;2023-07-31T13:33:59;1.23;;;1.00;;
11984;SDS011;6052;53.246;10.368;2023-07-31T13:36:29;0.98;;;0.82;;
11984;SDS011;6052;53.246;10.368;2023-07-31T13:39:00;0.90;;;0.90;;
11984;SDS011;6052;53.246;10.368;2023-07-31T13:41:32;1.00;;;0.90;;
11984;SDS011;6052;53.246;10.368;2023-07-31T13:44:01;0.93;;;0.88;;
11984;SDS011;6052;53.246;10.368;2023-07-31T13:46:31;0.65;;;0.65;;
11984;SDS011;6052;53.246;10.368;2023-07-31T13:49:01;0.60;;;0.60;;
11984;SDS011;6052;53.246;10.368;2023-07-31T13:51:30;0.70;;;0.70;;
11984;SDS011;6052;53.246;10.368;2023-07-31T13:54:00;1.10;;;0.82;;
11984;SDS011;6052;53.246;10.368;2023-07-31T13:56:33;1.15;;;0.90;;
11984;SDS011;6052;53.246;10.368;2023-07-31T13:59:02;0.75;;;0.70;;
11984;SDS011;6052;53.246;10.368;2023-07-31T14:01:32;1.85;;;0.70;;
11984;SDS011;6052;53.246;10.368;2023-07-31T14:04:01;1.27;;;0.95;;
11984;SDS011;6052;53.246;10.368;2023-07-31T14:06:31;1.10;;;1.00;;
11984;SDS011;6052;53.246;10.368;2023-07-31T14:09:00;0.68;;;0.68;;
11984;SDS011;6052;53.246;10.368;2023-07-31T14:11:33;1.15;;;1.05;;
11984;SDS011;6052;53.246;10.368;2023-07-31T14:14:05;0.80;;;0.80;;
11984;SDS011;6052;53.246;10.368;2023-07-31T14:16:35;0.98;;;0.90;;
11984;SDS011;6052;53.246;10.368;2023-07-31T14:19:05;0.70;;;0.70;;
11984;SDS011;6052;53.246;10.368;2023-07-31T14:21:35;0.80;;;0.80;;
11984;SDS011;6052;53.246;10.368;2023-07-31T14:24:04;1.10;;;1.02;;
11984;SDS011;6052;53.246;10.368;2023-07-31T14:26:36;1.20;;;1.10;;
11984;SDS011;6052;53.246;10.368;2023-07-31T14:29:06;0.93;;;0.88;;
11984;SDS011;6052;53.246;10.368;2023-07-31T14:31:36;1.23;;;1.13;;
11984;SDS011;6052;53.246;10.368;2023-07-31T14:34:05;1.30;;;1.15;;
11984;SDS011;6052;53.246;10.368;2023-07-31T14:36:34;4.00;;;1.23;;
11984;SDS011;6052;53.246;10.368;2023-07-31T14:39:04;1.50;;;1.30;;
11984;SDS011;6052;53.246;10.368;2023-07-31T14:41:36;1.30;;;1.20;;
11984;SDS011;6052;53.246;10.368;2023-07-31T14:44:06;1.48;;;1.33;;
11984;SDS011;6052;53.246;10.368;2023-07-31T14:46:35;1.10;;;1.00;;
11984;SDS011;6052;53.246;10.368;2023-07-31T14:49:05;2.40;;;1.15;;
11984;SDS011;6052;53.246;10.368;2023-07-31T14:51:34;4.05;;;1.25;;
11984;SDS011;6052;53.246;10.368;2023-07-31T14:54:04;1.10;;;1.00;;
11984;SDS011;6052;53.246;10.368;2023-07-31T14:56:33;1.52;;;1.40;;
11984;SDS011;6052;53.246;10.368;2023-07-31T14:59:05;1.48;;;1.38;;
11984;SDS011;6052;53.246;10.368;2023-07-31T15:01:36;1.33;;;1.23;;
11984;SDS011;6052;53.246;10.368;2023-07-31T15:04:05;1.95;;;1.30;;
11984;SDS011;6052;53.246;10.368;2023-07-31T15:06:35;2.22;;;1.27;;
11984;SDS011;6052;53.246;10.368;2023-07-31T15:09:05;1.38;;;1.27;;